Latest Coastal Weather Observations for Strahan

IDT60701

Issued at 9:42 am EST Tuesday 22 August 2017 (issued every 10 minutes, with the page automatically refreshed every 10 minutes)

About coastal observations | Map of coastal stations | Coastal observations for TAS | Marine services | Other Formats
Station Details ID: 097072 Name: STRAHAN AERODROME Lat: -42.16 Lon: 145.29 Height: 21.0 m
Data from the previous 72 hours. | See also: Recent months at Strahan
Date/Time
EST
Temp
°C
Wind Pressure Rain since
9am
mm
Weather Cloud Vis
km
Sea
Height
m
Swell
Dir  Spd
kts
Gust
kts
hPa Trend Height
m
Period
s
Dir
22/09:30am 10.0 N 9 13 1014.1 - 0.0 - Partly cloudy 6 - - - -
22/09:00am 9.9 N 10 13 1013.9 - 0.0 - Cloudy 10 - - - -
22/08:30am 9.2 NNE 9 12 1013.6 - 0.0 - Partly cloudy 10 - - - -
22/08:00am 8.1 NNE 9 12 1013.5 - 0.0 - Partly cloudy 10 - - - -
22/07:30am 7.4 NNE 8 11 1013.7 - 0.0 - Partly cloudy 10 - - - -
22/07:00am 7.3 N 6 8 1013.5 - 0.0 - Partly cloudy 10 - - - -
22/06:30am 7.3 N 9 11 1013.4 - 0.0 - Partly cloudy 10 - - - -
22/06:00am 6.9 NNE 8 10 1013.3 - 0.0 - Partly cloudy 10 - - - -
22/05:48am 7.2 NNE 8 11 1013.3 - 0.0 - Partly cloudy 10 - - - -
22/05:35am 7.7 N 10 13 1013.4 - 0.0 - Partly cloudy 5 - - - -
22/05:30am 7.9 N 9 12 1013.5 - 0.0 - Partly cloudy 10 - - - -
22/05:00am 8.0 N 9 13 1013.3 - 0.0 - Partly cloudy 10 - - - -
22/04:30am 7.9 N 9 13 1013.2 - 0.0 - Cloudy 10 - - - -
22/04:00am 7.6 NNE 9 13 1013.2 - 0.0 - Cloudy 10 - - - -
22/03:30am 7.2 N 10 13 1013.2 - 0.0 - Partly cloudy 10 - - - -
22/03:00am 6.7 NNE 10 14 1013.3 - 0.0 - - 10 - - - -
22/02:30am 6.7 NNE 8 11 1013.5 - 0.0 - Partly cloudy 10 - - - -
22/02:00am 6.1 N 7 11 1013.9 - 0.0 - Partly cloudy 10 - - - -
22/01:30am 7.2 NNW 6 8 1014.3 - 0.0 - Partly cloudy 10 - - - -
22/01:00am 7.2 N 8 11 1014.0 - 0.0 - Partly cloudy 10 - - - -
22/12:30am 7.0 NNE 9 13 1014.0 - 0.0 - - 10 - - - -
22/12:00am 7.4 NNE 9 14 1014.0 - 0.0 - Partly cloudy 10 - - - -
 
Date/Time
EST
Temp
°C
Wind Pressure Rain since
9am
mm
Weather Cloud Vis
km
Sea
Height
m
Swell
Dir  Spd
kts
Gust
kts
hPa Trend Height
m
Period
s
Dir
21/11:30pm 7.7 NNE 9 12 1014.2 - 0.0 - Cloudy 10 - - - -
21/11:00pm 7.0 NNE 7 10 1014.4 - 0.0 - Partly cloudy 10 - - - -
21/10:30pm 6.5 NNE 7 8 1014.6 - 0.0 - Cloudy 10 - - - -
21/10:00pm 6.4 N 7 9 1014.7 - 0.0 - Partly cloudy 10 - - - -
21/09:30pm 6.4 N 7 8 1014.6 - 0.0 - Partly cloudy 10 - - - -
21/09:00pm 7.4 NNE 6 8 1014.5 - 0.0 - Partly cloudy 10 - - - -
21/08:30pm 7.8 NNE 7 8 1014.6 - 0.0 - Partly cloudy 10 - - - -
21/08:00pm 7.8 N 7 10 1014.6 - 0.0 - Partly cloudy 10 - - - -
21/07:30pm 8.6 NNE 6 7 1014.3 - 0.0 - Partly cloudy 10 - - - -
21/07:00pm 10.2 NNW 10 14 1014.0 - 0.0 - Partly cloudy 10 - - - -
21/06:30pm 10.0 NW 6 9 1014.0 - 0.0 - Partly cloudy 10 - - - -
21/06:00pm 9.1 NW 6 8 1013.7 - 0.0 - Partly cloudy 10 - - - -
21/05:30pm 9.9 WNW 9 12 1013.5 - 0.0 - - 10 - - - -
21/05:00pm 11.0 WNW 9 12 1013.4 - 0.0 - Partly cloudy 10 - - - -
21/04:30pm 11.5 WNW 9 13 1013.1 - 0.0 - Partly cloudy 10 - - - -
21/04:00pm 12.9 NW 9 12 1013.1 - 0.0 - Partly cloudy 10 - - - -
21/03:30pm 12.8 NW 8 12 1013.0 - 0.0 - - 10 - - - -
21/03:00pm 13.3 NNW 8 12 1013.1 - 0.0 - - 10 - - - -
21/02:30pm 13.4 NNW 8 11 1013.3 - 0.0 - - 10 - - - -
21/02:00pm 11.7 N 7 10 1013.6 - 0.0 - - 10 - - - -
21/01:30pm 11.3 N 9 12 1014.0 - 0.0 - Partly cloudy 10 - - - -
21/01:00pm 12.0 NNW 9 15 1014.1 - 0.0 - Partly cloudy 10 - - - -
21/12:30pm 12.3 N 8 12 1014.4 - 0.0 - Partly cloudy 10 - - - -
21/12:00pm 10.5 NNE 10 14 1014.8 - 0.0 - Cloudy 10 - - - -
21/11:30am 11.1 NNE 10 15 1015.1 - 0.0 - Partly cloudy 10 - - - -
21/11:00am 11.2 NNE 11 16 1015.3 - 0.0 - Cloudy 10 - - - -
21/10:30am 10.4 NNE 9 13 1015.5 - 0.0 - Partly cloudy 10 - - - -
21/10:00am 9.6 NNE 8 11 1015.6 - 0.0 - Partly cloudy 10 - - - -
21/09:30am 8.9 NNE 10 13 1015.8 - 0.0 - Cloudy 10 - - - -
21/09:00am 7.4 NNE 7 11 1015.9 - 0.2 - Cloudy 10 - - - -
21/08:30am 5.7 NNE 8 11 1015.9 - 0.2 - Cloudy 10 - - - -
21/08:00am 4.5 NNE 8 12 1015.9 - 0.2 - Cloudy 10 - - - -
21/07:30am 3.8 NNE 8 10 1015.8 - 0.2 - Partly cloudy 10 - - - -
21/07:00am 3.4 NNE 8 10 1015.6 - 0.2 - Partly cloudy 10 - - - -
21/06:30am 3.3 NNE 8 10 1015.4 - 0.2 - - 10 - - - -
21/06:00am 3.2 NNE 8 10 1015.3 - 0.2 - - 10 - - - -
21/05:30am 3.4 NNE 8 10 1015.5 - 0.2 - - 10 - - - -
21/05:00am 3.5 NNE 7 9 1015.5 - 0.2 - - 10 - - - -
21/04:30am 3.6 NNE 7 10 1015.7 - 0.2 - - 10 - - - -
21/04:00am 3.7 NNE 6 8 1015.9 - 0.2 - Partly cloudy 10 - - - -
21/03:30am 3.8 NNE 7 9 1016.1 - 0.2 - Partly cloudy 10 - - - -
21/03:00am 4.2 NNE 8 11 1016.4 - 0.2 Recent precip. Cloudy 10 - - - -
21/02:30am 3.9 NNE 9 12 1017.0 - 0.2 - Partly cloudy 10 - - - -
21/02:00am 3.4 NNE 8 10 1016.9 - 0.0 - - 10 - - - -
21/01:30am 3.4 NNE 8 11 1017.1 - 0.0 - - 10 - - - -
21/01:00am 3.7 NNE 7 10 1017.1 - 0.0 - - 10 - - - -
21/12:30am 3.7 NNE 7 10 1017.2 - 0.0 - - 10 - - - -
21/12:00am 4.0 NNE 7 9 1017.3 - 0.0 - Mostly clear 10 - - - -
 
Date/Time
EST
Temp
°C
Wind Pressure Rain since
9am
mm
Weather Cloud Vis
km
Sea
Height
m
Swell
Dir  Spd
kts
Gust
kts
hPa Trend Height
m
Period
s
Dir
20/11:30pm 4.1 NNE 6 8 1017.6 - 0.0 - Partly cloudy 10 - - - -
20/11:00pm 4.1 NNE 6 8 1017.8 - 0.0 - - 10 - - - -
20/10:30pm 4.4 NNE 6 9 1018.0 - 0.0 - - 10 - - - -
20/10:00pm 4.9 NNE 5 7 1018.3 - 0.0 - Partly cloudy 10 - - - -
20/09:30pm 5.0 NNE 5 7 1018.6 - 0.0 - - 10 - - - -
20/09:00pm 5.6 NNE 7 9 1018.9 - 0.0 - Mostly cloudy 10 - - - -
20/08:30pm 5.9 NNE 8 10 1019.2 - 0.0 - Partly cloudy 10 - - - -
20/08:00pm 4.7 NNE 5 6 1019.2 - 0.0 - Partly cloudy 10 - - - -
20/07:30pm 4.4 N 4 6 1019.1 - 0.0 - Partly cloudy 10 - - - -
20/07:00pm 5.7 NNE 5 7 1018.8 - 0.0 - - 10 - - - -
20/06:30pm 5.5 NNE 3 4 1018.6 - 0.0 - - 10 - - - -
20/06:00pm 6.9 N 4 5 1018.5 - 0.0 - Mostly clear 10 - - - -
20/05:30pm 8.8 NW 3 4 1018.5 - 0.0 - - 10 - - - -
20/05:00pm 9.7 NW 5 7 1018.8 - 0.0 - - 10 - - - -
20/04:30pm 11.0 WNW 7 9 1019.0 - 0.0 - - 10 - - - -
20/04:00pm 11.1 NW 8 9 1019.3 - 0.0 - - 10 - - - -
20/03:30pm 11.5 WNW 9 11 1019.5 - 0.0 - - 10 - - - -
20/03:00pm 11.9 WNW 8 10 1019.7 - 0.0 - - 10 - - - -
20/02:30pm 11.8 W 9 12 1019.9 - 0.0 - - 10 - - - -
20/02:00pm 11.5 W 11 14 1020.1 - 0.0 - Partly cloudy 10 - - - -
20/01:30pm 11.3 NNW 10 14 1020.4 - 0.0 - Partly cloudy 10 - - - -
20/01:00pm 11.5 NW 10 14 1020.8 - 0.0 - - 10 - - - -
20/12:30pm 11.5 NNW 10 13 1021.4 - 0.0 - - 10 - - - -
20/12:00pm 10.3 NNW 8 11 1021.9 - 0.0 - - 10 - - - -
20/11:30am 9.7 NNW 9 12 1022.5 - 0.0 - Partly cloudy 10 - - - -
20/11:00am 11.2 N 9 12 1022.9 - 0.0 - - 10 - - - -
20/10:30am 10.0 N 8 10 1023.1 - 0.0 - Partly cloudy 10 - - - -
20/10:00am 7.9 NNE 7 9 1023.4 - 0.0 - - 10 - - - -
20/09:30am 6.8 NNE 8 11 1023.6 - 0.0 - - 10 - - - -
20/09:00am 6.2 NNE 7 8 1023.6 - 4.8 Recent precip. Partly cloudy 10 - - - -
20/08:53am 5.5 NNE 7 9 1023.6 - 4.8 - Partly cloudy 10 - - - -
20/08:30am 5.1 N 7 10 1023.8 - 4.6 - Partly cloudy 4 - - - -
20/08:26am 5.1 N 7 10 1023.8 - 4.4 - Partly cloudy 5 - - - -
20/08:00am 4.5 NNE 8 10 1023.5 - 4.0 - Partly cloudy 10 - - - -
20/07:30am 4.2 NNE 8 10 1023.6 - 4.0 - Partly cloudy 10 - - - -
20/07:18am 4.1 NNE 7 9 1023.5 - 4.0 - Partly cloudy 10 - - - -
20/07:00am 4.3 NNE 5 7 1023.5 - 3.8 - Partly cloudy 4 - - - -
20/06:51am 4.3 N 5 8 1023.5 - 3.4 - Partly cloudy 5 - - - -
20/06:30am 4.0 NNE 8 10 1023.3 - 3.0 - Partly cloudy 10 - - - -
20/06:08am 4.0 NNE 6 8 1023.4 - 3.0 - Partly cloudy 10 - - - -
20/06:00am 4.0 NE 6 8 1023.4 - 3.0 Rain Cloudy 7 - - - -
20/05:51am 4.1 ENE 5 8 1023.3 - 3.0 - Partly cloudy 5 - - - -
20/05:30am 3.8 NNE 7 10 1023.4 - 2.6 - Partly cloudy 10 - - - -
20/05:00am 4.2 NNE 7 11 1023.4 - 2.6 - Partly cloudy 10 - - - -
20/04:30am 3.8 NNE 9 12 1023.6 - 2.6 - Partly cloudy 10 - - - -
20/04:00am 4.0 NNE 8 10 1023.7 - 2.6 - Cloudy 10 - - - -
20/03:30am 3.7 NNE 8 10 1023.9 - 2.6 - Partly cloudy 10 - - - -
20/03:00am 3.6 NNE 7 9 1023.9 - 2.6 - Mostly cloudy 10 - - - -
20/02:30am 3.6 NE 6 7 1024.1 - 2.6 - Partly cloudy 10 - - - -
20/02:00am 3.7 NNE 5 7 1024.6 - 2.6 - Partly cloudy 10 - - - -
20/01:30am 3.1 NE 5 6 1024.7 - 2.6 - Partly cloudy 10 - - - -
20/01:00am 2.9 ENE 5 6 1024.9 - 2.6 - Partly cloudy 10 - - - -
20/12:30am 3.4 NE 6 8 1025.0 - 2.6 - Partly cloudy 10 - - - -
20/12:00am 2.9 ENE 5 6 1025.2 - 2.6 - Mostly clear 10 - - - -
 
Date/Time
EST
Temp
°C
Wind Pressure Rain since
9am
mm
Weather Cloud Vis
km
Sea
Height
m
Swell
Dir  Spd
kts
Gust
kts
hPa Trend Height
m
Period
s
Dir
19/11:30pm 3.6 NNE 1 6 1025.1 - 2.6 - Partly cloudy 10 - - - -
19/11:00pm 3.5 ENE 5 7 1025.1 - 2.6 - Partly cloudy 10 - - - -
19/10:30pm 4.1 NNE 7 9 1025.2 - 2.6 - Partly cloudy 10 - - - -
19/10:00pm 3.8 NNE 7 8 1025.1 - 2.6 - Partly cloudy 10 - - - -
19/09:30pm 3.7 NNE 6 8 1025.1 - 2.6 - Partly cloudy 10 - - - -
19/09:00pm 4.0 NNE 7 8 1025.0 - 2.6 Recent precip. - 10 - - - -
19/08:30pm 4.4 NNE 5 7 1024.9 - 2.4 - - 10 - - - -
19/08:00pm 5.0 NE 5 6 1025.2 - 2.4 - Partly cloudy 10 - - - -
19/07:30pm 4.9 N 2 4 1025.3 - 2.4 - Partly cloudy 10 - - - -
19/07:00pm 5.7 ESE 3 5 1025.3 - 2.4 - Partly cloudy 10 - - - -
19/06:30pm 6.6 SW 5 7 1025.4 - 2.4 - Cloudy 10 - - - -
19/06:00pm 6.9 SW 6 9 1025.4 - 2.4 - Partly cloudy 10 - - - -
19/05:30pm 8.1 SW 7 11 1025.2 - 2.4 - Cloudy 10 - - - -
19/05:00pm 9.2 SW 10 14 1025.1 - 2.4 - Partly cloudy 10 - - - -
19/04:30pm 8.7 WSW 9 13 1025.1 - 2.4 - Partly cloudy 10 - - - -
19/04:00pm 9.0 SW 10 15 1025.0 - 2.4 - Partly cloudy 10 - - - -
19/03:30pm 8.8 SW 8 11 1025.0 - 2.4 - Partly cloudy 10 - - - -
19/03:00pm 9.5 WSW 9 13 1025.0 - 2.4 - Partly cloudy 10 - - - -
19/02:30pm 9.4 WSW 9 12 1025.0 - 2.4 - Partly cloudy 10 - - - -
19/02:00pm 8.9 NW 6 9 1025.0 - 2.4 - Partly cloudy 10 - - - -
19/01:30pm 9.0 WNW 6 9 1024.9 - 2.4 - Partly cloudy 10 - - - -
19/01:00pm 9.8 WNW 5 8 1025.0 - 2.4 - - 10 - - - -
19/12:30pm 8.4 W 7 10 1025.3 - 2.4 - Partly cloudy 10 - - - -
19/12:00pm 8.5 SSE 3 6 1025.1 - 2.4 - Partly cloudy 10 - - - -
19/11:30am 8.7 N 4 6 1025.5 - 2.4 - Partly cloudy 10 - - - -
19/11:00am 6.7 ESE 4 5 1025.5 - 2.4 - Partly cloudy 7 - - - -
19/10:42am 7.1 ESE 1 4 1025.7 - 2.0 - Partly cloudy 10 - - - -
19/10:30am 5.8 SSE 1 3 1025.7 - 2.0 - Partly cloudy 4 - - - -
19/10:13am 6.0 SE 2 4 1025.8 - 0.8 - Partly cloudy 5 - - - -
19/10:00am 6.3 E 4 5 1025.7 - 0.2 - Partly cloudy 10 - - - -

Other Formats:

Comma delimited format used in spreadsheet applications
http://www.bom.gov.au/fwo/IDT60701/IDT60701.94956.axf

JavaScript Object Notation format (JSON) in row-major order
http://www.bom.gov.au/fwo/IDT60701/IDT60701.94956.json